Time;durP1;ratioP1;P1;durP2;ratioP2;P2;SDS_P1;SDS_P2;PMS_P1;PMS_P2;Temp;Humidity;BMP_temperature;BMP_pressure;BME280_temperature;BME280_humidity;BME280_pressure;Samples;Min_cycle;Max_cycle;Signal;HPM_P1;HPM_P2
2023/04/25 00:00:16;;;;;;;16.33;7.32;;;;;;;5.13;94.22;100929.81;4997160;28;20074;-71
2023/04/25 00:02:43;;;;;;;16.92;7.22;;;;;;;5.19;94.31;100920.22;4989132;28;20480;-70
2023/04/25 00:05:11;;;;;;;17.10;7.70;;;;;;;5.21;94.13;100924.53;4985248;28;20920;-71
2023/04/25 00:07:38;;;;;;;17.65;6.80;;;;;;;5.27;94.19;100932.31;4988745;28;20038;-70
2023/04/25 00:10:06;;;;;;;18.20;6.68;;;;;;;5.32;94.50;100934.06;4985641;28;21315;-70
2023/04/25 00:12:34;;;;;;;17.77;6.10;;;;;;;5.38;94.48;100929.66;4985442;28;20057;-71
2023/04/25 00:15:01;;;;;;;16.67;6.80;;;;;;;5.41;94.53;100937.47;4987434;28;20559;-70
2023/04/25 00:17:29;;;;;;;16.48;6.68;;;;;;;5.44;94.74;100934.81;5009870;28;20898;-71
2023/04/25 00:19:57;;;;;;;11.65;5.53;;;;;;;5.51;94.81;100932.16;4983989;28;20942;-71
2023/04/25 00:22:24;;;;;;;12.50;5.28;;;;;;;5.53;94.46;100935.63;5009708;28;20039;-71
2023/04/25 00:24:53;;;;;;;14.10;5.60;;;;;;;5.50;94.30;100941.75;4998530;28;20063;-70
2023/04/25 00:27:20;;;;;;;14.23;5.15;;;;;;;5.55;94.63;100952.19;4989925;28;21134;-70
2023/04/25 00:29:47;;;;;;;22.42;5.97;;;;;;;5.59;94.47;100948.69;4986552;28;20035;-71
2023/04/25 00:32:14;;;;;;;17.67;6.00;;;;;;;5.63;94.69;100952.13;4982049;28;20050;-71
2023/04/25 00:34:41;;;;;;;13.90;5.57;;;;;;;5.65;94.50;100947.72;5000165;28;20541;-70
2023/04/25 00:37:08;;;;;;;13.55;5.43;;;;;;;5.67;94.36;100949.47;5015225;28;20045;-71
2023/04/25 00:39:35;;;;;;;16.83;5.45;;;;;;;5.67;94.27;100949.47;4994232;28;20075;-70
2023/04/25 00:42:02;;;;;;;13.80;4.82;;;;;;;5.68;94.12;100947.72;4990237;28;20046;-70
2023/04/25 00:44:32;;;;;;;14.45;5.03;;;;;;;5.66;94.01;100952.97;4983725;28;20460;-70
2023/04/25 00:47:01;;;;;;;11.55;5.00;;;;;;;5.65;93.97;100953.84;4982859;28;20050;-70
2023/04/25 00:49:29;;;;;;;11.02;4.72;;;;;;;5.61;94.08;100952.13;4983853;28;20055;-70
2023/04/25 00:51:56;;;;;;;13.48;5.05;;;;;;;5.53;93.66;100943.47;4985777;28;20058;-70
2023/04/25 00:54:25;;;;;;;15.68;5.50;;;;;;;5.45;93.88;100946.13;4986160;28;20471;-71
2023/04/25 00:56:52;;;;;;;17.02;5.57;;;;;;;5.40;94.28;100953.16;4981819;28;20043;-70
2023/04/25 00:59:20;;;;;;;11.27;4.93;;;;;;;5.37;94.50;100954.06;5005894;28;20045;-70
2023/04/25 01:01:48;;;;;;;13.65;5.13;;;;;;;5.38;94.86;100944.47;5005684;28;20047;-71
2023/04/25 01:04:15;;;;;;;14.98;5.10;;;;;;;5.41;95.01;100957.53;5005526;28;20122;-71
2023/04/25 01:06:42;;;;;;;12.52;5.13;;;;;;;5.41;95.11;100961.00;4994416;28;20046;-70
2023/04/25 01:09:10;;;;;;;16.33;5.85;;;;;;;5.44;95.14;100960.13;4989154;28;20039;-71
2023/04/25 01:11:39;;;;;;;16.30;5.35;;;;;;;5.46;95.27;100955.72;5011778;28;20632;-71
2023/04/25 01:14:07;;;;;;;9.90;4.32;;;;;;;5.48;94.92;100963.56;4995268;28;20521;-71
2023/04/25 01:16:34;;;;;;;16.33;5.63;;;;;;;5.46;94.79;100955.72;4996848;28;20762;-71
2023/04/25 01:19:13;;;;;;;13.20;5.13;;;;;;;5.42;94.63;100954.88;4987862;28;20045;-71
2023/04/25 01:21:40;;;;;;;15.15;5.30;;;;;;;5.37;94.78;100959.28;5005275;28;20046;-71
2023/04/25 01:24:07;;;;;;;18.80;5.45;;;;;;;5.30;94.65;100957.56;5005560;28;20533;-72
2023/04/25 01:26:36;;;;;;;16.05;5.25;;;;;;;5.24;94.83;100960.25;5000645;28;20034;-71
2023/04/25 01:29:04;;;;;;;14.40;5.18;;;;;;;5.17;95.02;100958.56;5006891;28;20096;-71
2023/04/25 01:31:34;;;;;;;14.23;5.43;;;;;;;5.10;95.29;100955.94;5000240;28;20038;-71
2023/04/25 01:34:01;;;;;;;14.15;5.60;;;;;;;5.07;95.55;100961.22;5002518;28;20512;-71
2023/04/25 01:36:28;;;;;;;13.45;5.60;;;;;;;5.02;95.87;100968.19;5003424;28;20112;-71
2023/04/25 01:38:56;;;;;;;16.27;5.30;;;;;;;4.99;95.95;100965.59;5004878;28;20066;-72
2023/04/25 01:41:24;;;;;;;14.38;5.50;;;;;;;4.97;96.08;100969.97;5001598;28;20484;-72
2023/04/25 01:43:51;;;;;;;16.45;5.70;;;;;;;4.92;96.40;100966.50;4980325;28;20038;-72
2023/04/25 01:46:19;;;;;;;16.55;5.95;;;;;;;4.93;96.50;100974.38;4974118;28;20480;-72
2023/04/25 01:48:46;;;;;;;15.95;5.95;;;;;;;4.90;96.77;100973.47;4987873;28;20769;-71
2023/04/25 01:51:15;;;;;;;19.27;6.53;;;;;;;4.87;96.61;100981.34;4983459;28;20122;-72
2023/04/25 01:53:43;;;;;;;18.58;5.93;;;;;;;4.86;96.90;100983.09;4976221;28;21012;-72
2023/04/25 01:56:11;;;;;;;16.13;6.05;;;;;;;4.83;97.00;100980.50;4998604;28;20128;-71
2023/04/25 01:58:39;;;;;;;17.90;5.80;;;;;;;4.81;97.05;100984.84;4993065;28;20042;-71
2023/04/25 02:01:32;;;;;;;16.20;5.00;;;;;;;4.76;97.20;100990.09;4981790;28;20158;-70
2023/04/25 02:04:13;;;;;;;12.85;5.57;;;;;;;4.71;97.19;100993.59;5004667;28;20101;-71
2023/04/25 02:06:41;;;;;;;17.10;6.05;;;;;;;4.68;97.29;100997.06;4988223;28;20133;-71
2023/04/25 02:09:08;;;;;;;14.77;5.70;;;;;;;4.65;97.56;100999.72;4986238;28;20047;-70
2023/04/25 02:11:40;;;;;;;15.93;5.97;;;;;;;4.64;97.75;100995.38;4999293;28;20035;-70
2023/04/25 02:14:26;;;;;;;16.42;6.07;;;;;;;4.63;97.72;101006.69;4987297;28;20043;-71
2023/04/25 02:17:16;;;;;;;16.42;6.05;;;;;;;4.59;97.94;100998.00;4984635;28;20883;-71
2023/04/25 02:19:45;;;;;;;16.23;5.43;;;;;;;4.55;97.84;101001.47;4999702;28;20042;-71
2023/04/25 02:22:13;;;;;;;20.77;6.50;;;;;;;4.51;97.83;101002.38;4992897;28;20589;-70
2023/04/25 02:24:40;;;;;;;19.42;6.45;;;;;;;4.49;97.87;100998.88;4984859;28;20093;-71
2023/04/25 02:27:07;;;;;;;19.10;6.32;;;;;;;4.44;98.05;100993.69;4986385;28;20049;-71
2023/04/25 02:29:35;;;;;;;16.02;6.07;;;;;;;4.39;98.04;100990.19;4996550;28;20035;-71
2023/04/25 02:32:02;;;;;;;18.75;6.28;;;;;;;4.38;98.12;100998.03;4991114;28;20030;-71
2023/04/25 02:34:29;;;;;;;21.50;5.97;;;;;;;4.34;97.92;100999.78;4981709;28;20049;-70
2023/04/25 02:37:00;;;;;;;19.92;6.25;;;;;;;4.29;98.04;101002.41;4982587;28;20569;-70
2023/04/25 02:39:27;;;;;;;18.17;6.65;;;;;;;4.24;98.26;101014.59;4993203;28;20053;-70
2023/04/25 02:41:55;;;;;;;19.58;6.85;;;;;;;4.19;98.65;101014.59;4997913;28;20047;-71
2023/04/25 02:44:22;;;;;;;20.88;6.82;;;;;;;4.12;98.38;101007.66;4984608;28;20039;-71
2023/04/25 02:46:49;;;;;;;18.67;6.35;;;;;;;4.12;98.76;101010.25;4984008;28;20085;-71
2023/04/25 02:49:16;;;;;;;19.52;6.32;;;;;;;4.07;98.71;101014.59;4989378;28;20043;-71
2023/04/25 02:51:52;;;;;;;25.48;7.07;;;;;;;4.08;98.76;101015.47;4980790;28;20038;-70
2023/04/25 02:54:19;;;;;;;19.73;6.57;;;;;;;4.05;98.99;101021.56;4991521;28;20527;-70
2023/04/25 02:56:47;;;;;;;22.42;7.03;;;;;;;3.99;98.84;101017.22;4997283;28;20050;-70
2023/04/25 02:59:20;;;;;;;23.83;6.68;;;;;;;3.95;98.90;101018.09;4992789;28;20046;-69
2023/04/25 03:01:47;;;;;;;20.67;7.07;;;;;;;3.91;98.88;101010.25;4983084;28;20049;-70
2023/04/25 03:04:14;;;;;;;20.02;7.45;;;;;;;3.88;98.96;101011.13;4984766;28;20067;-69
2023/04/25 03:06:41;;;;;;;18.98;7.60;;;;;;;3.86;99.04;101008.53;4984215;28;20023;-70
2023/04/25 03:09:09;;;;;;;20.48;8.63;;;;;;;3.83;99.46;101008.53;5005309;28;20050;-72
2023/04/25 03:11:38;;;;;;;23.15;8.98;;;;;;;3.80;99.14;101010.28;4987894;28;20043;-70
2023/04/25 03:14:06;;;;;;;20.63;9.15;;;;;;;3.79;99.35;101012.00;4992226;28;20343;-70
2023/04/25 03:16:34;;;;;;;20.73;8.90;;;;;;;3.76;99.22;101012.03;4995209;28;20042;-70
2023/04/25 03:19:02;;;;;;;22.30;8.43;;;;;;;3.78;99.45;101022.44;4988455;28;20057;-70
2023/04/25 03:21:34;;;;;;;21.90;9.23;;;;;;;3.73;99.52;101017.22;5001095;28;20046;-71
2023/04/25 03:24:03;;;;;;;20.65;9.43;;;;;;;3.71;99.14;101025.03;5001509;28;20066;-71
2023/04/25 03:26:31;;;;;;;22.55;9.10;;;;;;;3.71;99.32;101030.25;4998922;28;20038;-71
2023/04/25 03:28:59;;;;;;;22.80;9.68;;;;;;;3.68;99.23;101027.66;4995172;28;20943;-71
2023/04/25 03:31:26;;;;;;;23.17;9.25;;;;;;;3.65;99.38;101022.41;4999616;28;20122;-71
2023/04/25 03:33:53;;;;;;;24.33;9.73;;;;;;;3.62;99.55;101027.63;5008639;28;20494;-70
2023/04/25 03:36:22;;;;;;;20.65;7.57;;;;;;;3.61;99.52;101025.91;4989629;28;20893;-70
2023/04/25 03:38:49;;;;;;;20.42;7.55;;;;;;;3.60;99.60;101023.28;4989928;28;20041;-70
2023/04/25 03:41:17;;;;;;;20.10;7.95;;;;;;;3.58;99.42;101025.91;4984649;28;20045;-71
2023/04/25 03:43:48;;;;;;;22.63;7.30;;;;;;;3.54;99.58;101027.63;5004814;28;21195;-71
2023/04/25 03:46:16;;;;;;;24.08;7.82;;;;;;;3.54;99.52;101021.53;4986696;28;20038;-70
2023/04/25 03:48:45;;;;;;;26.83;7.25;;;;;;;3.53;99.52;101025.88;4994335;28;20051;-70
2023/04/25 03:51:19;;;;;;;22.00;7.37;;;;;;;3.54;99.51;101032.84;5001822;28;20665;-69
2023/04/25 03:53:48;;;;;;;21.00;7.50;;;;;;;3.55;99.90;101037.19;4994562;28;20635;-69
2023/04/25 03:56:21;;;;;;;22.98;7.53;;;;;;;3.60;99.86;101042.41;4984545;28;20054;-70
2023/04/25 03:58:56;;;;;;;17.77;7.35;;;;;;;3.65;99.89;101037.22;4994612;28;20042;-70
2023/04/25 04:01:27;;;;;;;22.52;6.93;;;;;;;3.68;99.82;101037.19;5000894;28;20046;-71
2023/04/25 04:03:54;;;;;;;23.80;7.57;;;;;;;3.74;100.00;101039.81;4995107;28;20039;-71
2023/04/25 04:06:23;;;;;;;20.02;7.30;;;;;;;3.78;99.96;101044.16;4998600;28;20069;-70
2023/04/25 04:08:57;;;;;;;24.63;7.60;;;;;;;3.84;99.97;101041.56;4977959;28;20042;-71
2023/04/25 04:11:25;;;;;;;21.08;7.50;;;;;;;3.93;100.00;101040.69;4982895;28;20109;-71
2023/04/25 04:13:52;;;;;;;18.40;7.43;;;;;;;3.99;99.76;101043.31;4986644;28;20745;-71
2023/04/25 04:16:19;;;;;;;16.52;6.47;;;;;;;4.05;99.36;101037.22;4975740;28;20050;-71
2023/04/25 04:18:47;;;;;;;21.40;7.35;;;;;;;4.09;98.85;101040.72;4995226;28;20554;-72
2023/04/25 04:21:14;;;;;;;17.38;6.53;;;;;;;4.10;98.93;101043.31;5005532;28;20039;-71
2023/04/25 04:23:42;;;;;;;21.10;7.70;;;;;;;4.14;98.44;101047.66;5000495;28;20086;-71
2023/04/25 04:26:11;;;;;;;17.40;7.15;;;;;;;4.18;98.18;101046.78;4995186;28;20074;-71
2023/04/25 04:28:55;;;;;;;25.45;7.95;;;;;;;4.22;98.14;101046.78;4990830;28;20043;-71
2023/04/25 04:31:32;;;;;;;24.58;7.47;;;;;;;4.25;98.10;101046.78;4993410;28;20038;-71
2023/04/25 04:34:01;;;;;;;23.45;7.03;;;;;;;4.28;97.98;101058.09;4999055;28;20216;-70
2023/04/25 04:36:30;;;;;;;24.50;7.40;;;;;;;4.31;97.61;101057.22;4982069;28;20070;-70
2023/04/25 04:39:01;;;;;;;22.65;7.13;;;;;;;4.34;97.50;101058.06;4987194;28;20053;-71
2023/04/25 04:41:38;;;;;;;20.08;6.68;;;;;;;4.38;97.35;101058.09;4982410;28;20144;-71
2023/04/25 04:44:25;;;;;;;23.88;7.25;;;;;;;4.42;97.15;101062.44;4984426;28;20047;-71
2023/04/25 04:47:13;;;;;;;38.08;7.78;;;;;;;4.41;96.56;101058.94;4995747;28;20039;-70
2023/04/25 04:50:10;;;;;;;17.52;6.93;;;;;;;4.45;96.36;101072.84;4973704;28;20562;-69
2023/04/25 04:52:56;;;;;;;18.83;7.22;;;;;;;4.42;95.80;101076.34;4984474;28;20505;-71
2023/04/25 04:55:43;;;;;;;21.98;7.10;;;;;;;4.42;95.39;101085.94;4993763;28;20528;-71
2023/04/25 04:58:29;;;;;;;21.67;7.20;;;;;;;4.41;95.24;101082.44;5002892;28;20034;-70
2023/04/25 05:01:35;;;;;;;22.98;7.22;;;;;;;4.97;93.65;101087.56;5000449;28;20567;-70
2023/04/25 05:04:21;;;;;;;18.73;6.72;;;;;;;5.24;92.28;101091.78;5001842;28;20590;-70
2023/04/25 05:07:06;;;;;;;15.15;6.40;;;;;;;5.92;90.41;101093.16;5000805;28;20117;-68
2023/04/25 05:10:04;;;;;;;24.08;7.22;;;;;;;6.64;87.41;101088.25;4988687;28;20053;-69
2023/04/25 05:12:59;;;;;;;23.63;6.28;;;;;;;8.01;82.93;101095.28;5002918;28;20117;-70
2023/04/25 05:16:05;;;;;;;16.02;5.75;;;;;;;9.01;78.44;101090.91;5018423;28;20046;-69
2023/04/25 05:18:55;;;;;;;14.93;4.97;;;;;;;9.69;75.08;101093.88;5000355;28;20061;-69
2023/04/25 05:21:29;;;;;;;14.60;5.43;;;;;;;10.40;72.09;101099.25;4999317;28;20047;-69
2023/04/25 05:24:09;;;;;;;20.25;5.18;;;;;;;11.50;67.62;101099.72;4999177;28;20042;-69
2023/04/25 05:26:57;;;;;;;15.77;4.30;;;;;;;12.55;64.68;101107.91;4982415;28;20637;-69
2023/04/25 05:29:39;;;;;;;17.23;4.93;;;;;;;13.34;61.78;101111.25;5001329;28;20073;-69
2023/04/25 05:32:17;;;;;;;11.60;3.95;;;;;;;14.03;58.24;101108.63;5000432;28;20039;-70
2023/04/25 05:34:46;;;;;;;13.88;3.70;;;;;;;13.77;58.00;101114.03;5004390;28;20035;-70
2023/04/25 05:37:22;;;;;;;17.38;4.38;;;;;;;12.22;60.74;101116.88;5004195;28;20035;-70
2023/04/25 05:39:55;;;;;;;22.00;4.68;;;;;;;11.36;61.82;101119.53;5006253;28;20046;-69
2023/04/25 05:42:51;;;;;;;13.35;4.25;;;;;;;10.43;64.76;101122.88;5001964;28;20055;-69
2023/04/25 05:45:21;;;;;;;14.10;4.03;;;;;;;9.75;67.18;101121.81;4998245;28;20050;-68
2023/04/25 05:48:23;;;;;;;17.80;4.82;;;;;;;9.28;69.19;101135.97;5001117;28;20947;-68
2023/04/25 05:50:58;;;;;;;13.18;4.60;;;;;;;9.00;70.37;101135.63;4999951;28;20125;-69
2023/04/25 05:53:47;;;;;;;15.85;4.70;;;;;;;8.78;72.10;101137.81;5000484;28;20042;-67
2023/04/25 05:56:20;;;;;;;16.07;5.27;;;;;;;8.58;72.60;101144.28;5013316;28;20045;-68
2023/04/25 05:58:54;;;;;;;13.85;5.38;;;;;;;8.36;73.44;101138.47;5001434;28;20054;-68
2023/04/25 06:01:24;;;;;;;11.18;4.70;;;;;;;8.24;74.52;101135.16;5003304;28;20041;-69
2023/04/25 06:03:52;;;;;;;17.58;5.13;;;;;;;8.19;74.89;101144.88;4987288;28;20053;-69
2023/04/25 06:06:23;;;;;;;13.68;4.40;;;;;;;8.13;74.49;101150.22;5002669;28;20428;-69
2023/04/25 06:08:50;;;;;;;16.40;4.38;;;;;;;8.01;74.39;101151.25;5003922;28;20470;-69
2023/04/25 06:11:17;;;;;;;14.95;4.45;;;;;;;7.93;74.76;101153.13;4987859;28;20042;-69
2023/04/25 06:13:46;;;;;;;15.18;3.67;;;;;;;7.90;75.08;101153.16;5003007;28;20045;-68
2023/04/25 06:16:16;;;;;;;18.65;4.47;;;;;;;7.87;75.21;101154.09;5004434;28;20078;-68
2023/04/25 06:18:43;;;;;;;24.65;4.90;;;;;;;7.85;75.28;101150.63;5005410;28;20070;-69
2023/04/25 06:21:10;;;;;;;12.25;3.88;;;;;;;7.85;75.60;101148.00;5003773;28;20051;-69
2023/04/25 06:23:37;;;;;;;14.85;3.88;;;;;;;7.86;74.92;101148.88;5002852;28;20038;-69
2023/04/25 06:26:07;;;;;;;20.90;4.80;;;;;;;7.83;75.00;101156.78;5004248;28;20042;-69
2023/04/25 06:28:37;;;;;;;14.52;4.22;;;;;;;7.88;75.62;101157.59;5002931;28;20526;-70
2023/04/25 06:31:04;;;;;;;14.82;3.55;;;;;;;7.97;75.51;101157.47;4996334;28;20124;-69
2023/04/25 06:33:32;;;;;;;17.52;3.55;;;;;;;8.11;75.22;101159.00;4995993;28;20046;-69
2023/04/25 06:35:59;;;;;;;11.88;3.33;;;;;;;8.21;73.64;101165.84;4986568;28;20042;-70
2023/04/25 06:38:27;;;;;;;15.80;3.67;;;;;;;8.27;71.89;101164.88;4986442;28;20070;-69
2023/04/25 06:40:56;;;;;;;11.95;3.50;;;;;;;8.28;72.67;101166.63;4998120;28;20046;-70
2023/04/25 06:43:25;;;;;;;14.48;3.40;;;;;;;8.29;71.88;101171.84;4995085;28;20101;-70
2023/04/25 06:45:52;;;;;;;13.13;3.17;;;;;;;8.26;71.87;101177.16;5009193;28;20097;-69
2023/04/25 06:48:21;;;;;;;10.98;3.17;;;;;;;8.20;72.06;101191.25;4989837;28;20050;-70
2023/04/25 06:50:48;;;;;;;20.73;3.72;;;;;;;8.06;72.11;101185.31;5004180;28;20063;-70
2023/04/25 06:53:15;;;;;;;15.07;3.40;;;;;;;8.00;72.80;101188.91;5000854;28;20050;-70
2023/04/25 06:55:46;;;;;;;19.90;3.72;;;;;;;8.07;72.10;101189.69;5005923;28;20046;-70
2023/04/25 06:58:18;;;;;;;9.02;2.88;;;;;;;8.21;71.10;101190.38;5009110;28;20109;-70
2023/04/25 07:01:04;;;;;;;15.00;3.13;;;;;;;8.32;72.00;101184.09;5007604;28;20043;-70
2023/04/25 07:03:32;;;;;;;9.85;3.10;;;;;;;8.44;71.48;101183.03;5008402;28;20050;-69
2023/04/25 07:06:06;;;;;;;11.75;2.75;;;;;;;8.49;71.06;101195.22;4991454;28;20046;-70
2023/04/25 07:08:33;;;;;;;9.32;2.72;;;;;;;8.49;70.94;101197.84;5007574;28;20077;-70
2023/04/25 07:11:00;;;;;;;12.38;2.97;;;;;;;8.55;70.85;101191.63;5007415;28;20945;-70
2023/04/25 07:13:28;;;;;;;11.75;3.03;;;;;;;8.62;69.57;101195.88;5007486;28;20042;-70
2023/04/25 07:15:55;;;;;;;13.70;3.13;;;;;;;8.72;69.84;101190.47;5007914;28;20049;-69
2023/04/25 07:18:23;;;;;;;11.85;2.60;;;;;;;8.85;69.18;101192.00;5021851;28;20042;-69
2023/04/25 07:20:51;;;;;;;13.38;2.40;;;;;;;8.95;68.32;101206.72;4992023;28;20066;-70
2023/04/25 07:23:20;;;;;;;14.05;2.80;;;;;;;9.11;67.81;101202.06;5008718;28;20089;-69
2023/04/25 07:25:47;;;;;;;12.35;2.30;;;;;;;9.17;66.23;101211.59;4991593;28;20155;-69
2023/04/25 07:28:20;;;;;;;10.18;2.33;;;;;;;9.13;65.39;101212.53;5008381;28;20042;-70
2023/04/25 07:30:47;;;;;;;10.63;2.47;;;;;;;9.10;65.79;101223.16;5002036;28;20049;-70
2023/04/25 07:33:14;;;;;;;10.13;1.98;;;;;;;9.07;64.96;101216.16;5004172;28;20109;-70
2023/04/25 07:35:41;;;;;;;10.63;2.70;;;;;;;9.24;65.59;101223.75;4989391;28;20133;-70
2023/04/25 07:38:10;;;;;;;15.82;2.30;;;;;;;9.39;66.17;101222.56;5004706;28;20043;-70
2023/04/25 07:40:38;;;;;;;10.68;2.53;;;;;;;9.51;66.02;101229.38;5019874;28;20384;-69
2023/04/25 07:43:07;;;;;;;10.40;2.10;;;;;;;9.59;66.05;101224.84;5003154;28;20043;-70
2023/04/25 07:45:46;;;;;;;15.30;2.13;;;;;;;9.63;63.77;101225.63;5006888;28;20050;-70
2023/04/25 07:48:19;;;;;;;7.55;1.70;;;;;;;9.63;62.04;101233.53;5008753;28;20109;-70
2023/04/25 07:50:47;;;;;;;9.93;2.50;;;;;;;9.67;61.73;101232.56;5007669;28;20106;-70
2023/04/25 07:53:14;;;;;;;7.93;1.65;;;;;;;9.87;60.84;101240.06;4999697;28;20530;-70
2023/04/25 07:56:00;;;;;;;6.57;1.40;;;;;;;10.03;59.82;101237.09;5009535;28;20042;-69
2023/04/25 07:58:38;;;;;;;8.50;2.08;;;;;;;10.05;59.20;101244.06;5019283;28;20070;-70
2023/04/25 08:01:08;;;;;;;7.85;2.03;;;;;;;10.08;61.11;101243.97;5008449;28;20919;-69
2023/04/25 08:03:51;;;;;;;9.10;1.67;;;;;;;10.16;59.82;101254.38;5004909;28;20054;-69
2023/04/25 08:06:31;;;;;;;14.48;1.98;;;;;;;10.16;60.69;101256.16;5007495;28;20533;-69
2023/04/25 08:09:13;;;;;;;13.20;2.42;;;;;;;10.23;59.55;101257.75;5006853;28;20054;-69
2023/04/25 08:11:42;;;;;;;8.40;2.00;;;;;;;10.20;59.60;101260.44;5002436;28;20039;-70
2023/04/25 08:14:13;;;;;;;8.40;1.77;;;;;;;10.22;59.24;101262.16;4989286;28;20093;-70
2023/04/25 08:16:42;;;;;;;8.77;1.98;;;;;;;10.34;58.58;101262.75;5005228;28;20542;-70
2023/04/25 08:19:10;;;;;;;8.98;1.70;;;;;;;10.40;58.40;101267.94;4991512;28;20068;-70
2023/04/25 08:21:38;;;;;;;12.85;1.40;;;;;;;10.43;57.28;101273.13;5006930;28;20518;-70
2023/04/25 08:24:10;;;;;;;7.93;1.45;;;;;;;10.36;56.67;101266.22;5005436;28;20466;-70
2023/04/25 08:26:41;;;;;;;6.82;1.20;;;;;;;10.29;57.46;101272.53;5004942;28;20545;-70
2023/04/25 08:29:10;;;;;;;12.57;1.85;;;;;;;10.21;58.09;101277.97;5017966;28;20507;-70
2023/04/25 08:31:40;;;;;;;6.65;1.30;;;;;;;10.20;58.26;101279.75;5008497;28;20138;-69
2023/04/25 08:34:10;;;;;;;6.60;1.55;;;;;;;10.35;57.83;101283.81;5007327;28;20511;-70
2023/04/25 08:36:42;;;;;;;13.48;1.50;;;;;;;10.60;55.84;101280.63;5014610;28;20054;-70
2023/04/25 08:39:24;;;;;;;9.65;1.63;;;;;;;10.84;55.55;101284.47;5020768;28;21005;-70
2023/04/25 08:42:12;;;;;;;7.18;1.65;;;;;;;10.96;55.18;101283.31;5008073;28;20043;-71
2023/04/25 08:44:39;;;;;;;5.57;1.10;;;;;;;10.78;53.39;101291.69;4999992;28;20043;-70
2023/04/25 08:47:06;;;;;;;6.40;1.45;;;;;;;10.51;52.53;101292.28;5003651;28;20038;-70
2023/04/25 08:50:03;;;;;;;10.65;1.88;;;;;;;10.14;53.23;101308.00;4995172;28;20488;-70
2023/04/25 08:52:45;;;;;;;22.35;2.95;;;;;;;9.91;54.99;101304.94;4986625;28;20515;-70
2023/04/25 08:55:15;;;;;;;9.60;1.20;;;;;;;9.87;55.05;101308.53;5002711;28;20046;-70
2023/04/25 08:57:43;;;;;;;6.93;1.33;;;;;;;9.96;54.02;101302.22;5005439;28;20047;-70
2023/04/25 09:00:12;;;;;;;6.80;1.70;;;;;;;9.86;53.93;101301.53;4988398;28;20101;-70
2023/04/25 09:02:43;;;;;;;7.97;1.30;;;;;;;9.84;53.75;101303.31;4990458;28;20576;-70
2023/04/25 09:05:14;;;;;;;20.48;1.98;;;;;;;10.02;54.42;101309.13;5002429;28;20121;-70
2023/04/25 09:07:42;;;;;;;25.70;2.80;;;;;;;10.19;54.29;101306.13;4988963;28;20034;-70
2023/04/25 09:10:10;;;;;;;26.60;2.65;;;;;;;10.48;52.20;101316.06;5006551;28;20046;-70
2023/04/25 09:12:38;;;;;;;9.48;1.60;;;;;;;10.75;52.72;101326.88;5006580;28;20051;-71
2023/04/25 09:15:11;;;;;;;6.95;1.40;;;;;;;11.07;51.54;101322.59;5001038;28;20051;-70
2023/04/25 09:17:59;;;;;;;9.40;2.20;;;;;;;11.29;51.82;101325.56;5007826;28;20161;-70
2023/04/25 09:20:31;;;;;;;5.57;1.40;;;;;;;11.32;52.02;101329.91;5008101;28;20031;-70
2023/04/25 09:23:05;;;;;;;4.60;1.23;;;;;;;11.30;50.95;101335.22;4990134;28;20034;-70
2023/04/25 09:25:43;;;;;;;8.35;1.55;;;;;;;11.22;50.88;101333.69;4990111;28;20070;-70
2023/04/25 09:28:11;;;;;;;3.38;1.20;;;;;;;11.27;51.54;101350.28;5003019;28;20237;-70
2023/04/25 09:30:38;;;;;;;8.57;1.67;;;;;;;11.32;51.08;101345.75;4985425;28;20074;-71
2023/04/25 09:33:36;;;;;;;6.95;1.77;;;;;;;11.41;51.71;101348.16;5011507;28;20054;-71
2023/04/25 09:36:09;;;;;;;8.85;1.58;;;;;;;11.48;51.36;101349.72;5002462;28;20047;-71
2023/04/25 09:39:03;;;;;;;6.65;1.23;;;;;;;11.58;50.08;101350.38;4994096;28;20534;-71
2023/04/25 09:41:37;;;;;;;12.98;1.40;;;;;;;11.43;49.86;101356.03;4989001;28;20118;-71
2023/04/25 09:44:05;;;;;;;5.00;1.30;;;;;;;11.19;50.84;101351.34;5005910;28;20113;-71
2023/04/25 09:46:36;;;;;;;9.13;1.50;;;;;;;11.09;51.14;101357.75;5007426;28;20101;-71
2023/04/25 09:49:08;;;;;;;14.82;1.70;;;;;;;10.97;52.40;101364.19;5002502;28;20051;-70
2023/04/25 09:52:00;;;;;;;8.63;1.20;;;;;;;11.14;51.43;101361.13;4978638;28;20728;-70
2023/04/25 09:54:51;;;;;;;9.82;1.30;;;;;;;11.10;50.20;101353.31;5005277;28;20066;-70
2023/04/25 09:57:25;;;;;;;11.77;1.40;;;;;;;11.00;51.23;101377.28;5005678;28;20128;-70
2023/04/25 10:00:00;;;;;;;11.35;1.52;;;;;;;10.96;50.78;101377.41;5005823;28;20049;-70
2023/04/25 10:02:46;;;;;;;13.48;1.75;;;;;;;11.08;51.10;101374.47;5005201;28;20045;-70
2023/04/25 10:05:32;;;;;;;6.22;1.55;;;;;;;11.26;51.14;101364.38;4990698;28;20042;-70
2023/04/25 10:08:06;;;;;;;8.90;1.52;;;;;;;11.17;52.28;101376.88;5001644;28;20121;-69
2023/04/25 10:10:36;;;;;;;6.75;1.17;;;;;;;11.17;50.83;101374.25;4995826;28;20050;-70
2023/04/25 10:13:06;;;;;;;7.10;1.20;;;;;;;11.39;47.96;101388.72;5002296;28;20118;-70
2023/04/25 10:15:38;;;;;;;7.63;1.30;;;;;;;11.59;47.64;101381.16;5004983;28;20721;-70
2023/04/25 10:18:06;;;;;;;8.23;1.58;;;;;;;11.61;51.46;101384.59;5006617;28;20137;-70
2023/04/25 10:20:34;;;;;;;8.27;1.42;;;;;;;11.67;52.59;101386.22;5006053;28;20065;-70
2023/04/25 10:23:16;;;;;;;4.65;0.98;;;;;;;11.72;48.46;101379.03;5005034;28;20042;-70
2023/04/25 10:25:44;;;;;;;13.88;1.42;;;;;;;11.66;46.70;101392.41;4988997;28;20089;-70
2023/04/25 10:28:13;;;;;;;4.43;1.15;;;;;;;11.49;47.33;101384.94;5006817;28;20065;-70
2023/04/25 10:31:07;;;;;;;6.32;1.13;;;;;;;11.17;48.50;101381.31;4985567;28;20050;-70
2023/04/25 10:33:38;;;;;;;5.30;1.10;;;;;;;10.92;47.54;101396.84;5005202;28;20526;-69
2023/04/25 10:36:26;;;;;;;8.07;1.15;;;;;;;11.03;47.66;101400.97;4991631;28;20129;-70
2023/04/25 10:38:54;;;;;;;3.08;0.70;;;;;;;11.03;46.81;101395.69;5005446;28;20046;-69
2023/04/25 10:41:22;;;;;;;5.55;1.20;;;;;;;11.03;46.52;101402.75;5000372;28;20034;-70
2023/04/25 10:44:01;;;;;;;6.15;1.50;;;;;;;10.89;47.91;101397.75;5006402;28;20043;-70
2023/04/25 10:46:31;;;;;;;4.97;1.13;;;;;;;10.68;47.50;101407.03;5004725;28;20046;-69
2023/04/25 10:49:01;;;;;;;6.78;1.30;;;;;;;10.49;47.45;101403.91;5007094;28;20059;-70
2023/04/25 10:51:34;;;;;;;3.80;1.08;;;;;;;10.43;47.93;101411.97;5004663;28;20046;-70
2023/04/25 10:54:22;;;;;;;5.68;1.00;;;;;;;10.38;49.59;101412.91;5006831;28;20045;-70
2023/04/25 10:56:50;;;;;;;4.28;1.30;;;;;;;10.39;48.24;101403.25;5005679;28;20039;-70
2023/04/25 10:59:19;;;;;;;8.30;1.70;;;;;;;10.42;48.76;101405.84;5006738;28;20138;-71
2023/04/25 11:01:54;;;;;;;6.50;1.40;;;;;;;10.47;49.35;101411.88;4995164;28;20039;-71
2023/04/25 11:04:35;;;;;;;8.43;1.30;;;;;;;10.57;49.75;101412.56;4991728;28;20077;-71
2023/04/25 11:07:40;;;;;;;8.82;1.20;;;;;;;10.60;49.49;101403.72;5002136;28;20070;-71
2023/04/25 11:10:09;;;;;;;6.68;1.27;;;;;;;10.57;50.91;101404.66;5001974;28;20057;-71
2023/04/25 11:12:36;;;;;;;5.32;1.02;;;;;;;10.52;50.05;101401.22;5004674;28;20034;-71
2023/04/25 11:15:06;;;;;;;9.93;1.02;;;;;;;10.50;50.24;101403.00;5000605;28;20043;-71
2023/04/25 11:17:35;;;;;;;8.25;1.50;;;;;;;10.55;50.28;101406.44;5017957;28;20050;-71
2023/04/25 11:20:07;;;;;;;9.43;1.60;;;;;;;10.79;51.74;101401.50;5004441;28;20116;-71
2023/04/25 11:22:34;;;;;;;12.30;1.63;;;;;;;10.93;50.41;101403.88;5005055;28;20983;-71
2023/04/25 11:25:10;;;;;;;5.32;1.10;;;;;;;11.19;48.70;101398.84;5006138;28;20045;-71
2023/04/25 11:27:57;;;;;;;4.30;1.20;;;;;;;11.53;48.13;101386.56;5006678;28;20035;-71
2023/04/25 11:30:26;;;;;;;5.50;1.13;;;;;;;11.91;47.94;101402.31;5008396;28;20045;-71
2023/04/25 11:32:53;;;;;;;7.70;1.30;;;;;;;12.15;47.33;101387.59;5008023;28;20118;-71
2023/04/25 11:35:22;;;;;;;6.25;1.20;;;;;;;12.10;47.10;101398.31;5006370;28;20119;-71
2023/04/25 11:37:50;;;;;;;8.15;1.30;;;;;;;12.04;42.90;101403.75;5008797;28;20062;-71
2023/04/25 11:40:18;;;;;;;5.15;0.90;;;;;;;12.00;44.33;101403.91;5009386;28;20307;-71
2023/04/25 11:42:47;;;;;;;2.85;0.75;;;;;;;11.99;45.31;101407.44;5004516;28;20061;-71
2023/04/25 11:45:15;;;;;;;5.60;1.25;;;;;;;11.94;45.44;101418.09;5005545;28;20039;-71
2023/04/25 11:47:42;;;;;;;8.38;1.85;;;;;;;11.73;45.29;101420.41;5004946;28;20116;-71